• Join FlightAware (Why Join?)
  • Login
  • US Flag 
02:49PM EDT


 

Airport Tracker/Info


-or-


 

Live Flight TrackerFlight Track Log ✈ EJA831 ✈ 18-May-2013 ✈ KRSW - KAVL

Flight Track Log - Related Links

Times and Time Zones

All times are in EDT time to prevent confusion due to time zone crossing. See the EJA831 flight status page for this flight to view local times or setup timezone preferences in your user account.

Time Position Orientation Groundspeed Altitude Reporting Facility
EDT Latitude Longitude Course Direction KTS MPH feet Rate Location/Type
11:16AM 26.6325 -81.7133 347° North 249 287 6,800  Level Miami Center
11:17AM 26.7075 -81.7189 356° North 254 292 10,000 3,000 Climbing Miami Center
11:18AM 26.7886 -81.7244 357° North 264 304 12,900 1,500 Climbing Miami Center
11:19AM 26.8717 -81.7350 354° North 289 333 13,000  Climbing Miami Center
11:20AM 26.9572 -81.7408 357° North 294 338 13,000 900 Level Miami Center
11:21AM 27.1677 -81.7919 347° North  Level FlightAware Approximate
11:21AM 27.0381 -81.7536 352° North 299 344 14,800  Level Miami Center
11:22AM 27.1208 -81.7781 345° North 294 338 17,500 2,580 Climbing Miami Center
11:23AM 27.2136 -81.8075 344° North 299 344 20,000 2,460 Climbing Miami Center
11:24AM 27.3044 -81.8372 344° North 321 369 22,400 2,100 Climbing Miami Center
11:25AM 27.3911 -81.8692 342° North 321 369 24,300 1,800 Climbing Miami Center
11:26AM 27.4756 -81.8983 343° North 333 383 26,000 1,620 Climbing Miami Center
11:27AM 27.5664 -81.9328 341° North 344 396 27,600 1,860 Climbing Miami Center
11:28AM 27.6719 -81.8906 20° North 344 396 29,800 2,100 Climbing Miami Center
11:29AM 27.7636 -81.8361 28° Northeast 355 409 31,800 1,800 Climbing Miami Center
11:30AM 27.8428 -81.7833 31° Northeast 366 421 33,500 1,080 Climbing Miami Center
11:31AM 27.9383 -81.7333 25° Northeast 371 427 34,000 240 Climbing Miami Center
11:32AM 28.0492 -81.7239 North 376 433 34,100 1,020 Climbing Miami Center
11:33AM 28.1561 -81.7122 North 381 438 36,100 1,980 Climbing Miami Center
11:34AM 28.2564 -81.7047 North 376 433 38,100 1,860 Climbing Miami Center
11:35AM 28.3528 -81.6947 North 355 409 39,900 1,380 Climbing Miami Center
11:36AM 28.4467 -81.6892 North 343 395 40,900 480 Climbing Miami Center
11:37AM 28.5700 -81.6800 North 346 398 41,000  Climbing Jacksonville Center
11:38AM 28.6742 -81.6692 North 368 423 41,000  Level Jacksonville Center
11:39AM 28.7825 -81.6583 North 381 438 41,000  Level Jacksonville Center
11:40AM 28.8953 -81.6500 North 386 444 41,000  Level Jacksonville Center
11:41AM 29.0056 -81.6367 North 391 450 41,000  Level Jacksonville Center
11:42AM 29.1039 -81.6331 North 391 450 41,000  Level Jacksonville Center
11:43AM 29.2250 -81.6433 356° North 391 450 41,000  Level Jacksonville Center
11:44AM 29.3336 -81.6467 358° North 386 444 41,000  Level Jacksonville Center
11:45AM 29.4400 -81.6525 357° North 386 444 41,000  Level Jacksonville Center
11:46AM 29.5486 -81.6583 357° North 386 444 41,000  Level Jacksonville Center
11:47AM 29.6572 -81.6642 357° North 386 444 41,000  Level Jacksonville Center
11:48AM 29.7658 -81.6700 357° North 386 444 41,000  Level Jacksonville Center
11:49AM 29.8744 -81.6758 357° North 386 444 41,000  Level Jacksonville Center
11:50AM 29.9831 -81.6792 358° North 386 444 41,000  Level Jacksonville Center
11:51AM 30.0939 -81.6850 357° North 386 444 41,000  Level Jacksonville Center
11:52AM 30.2025 -81.6908 357° North 386 444 41,000  Level Jacksonville Center
11:53AM 30.3153 -81.6919 360° North 386 444 41,000  Level Jacksonville Center
11:54AM 30.4322 -81.7000 357° North 400 460 41,000  Level Jacksonville Center
11:55AM 30.5450 -81.7083 356° North 406 467 41,000  Level Jacksonville Center
11:56AM 30.6578 -81.7189 355° North 406 467 41,000  Level Jacksonville Center
11:57AM 30.7686 -81.7247 357° North 406 467 41,000  Level Jacksonville Center
11:58AM 30.8750 -81.7381 354° North 401 461 41,000  Level Jacksonville Center
11:59AM 30.9797 -81.7536 353° North 390 449 41,000  Level Jacksonville Center
12:00PM 31.0883 -81.7694 353° North 385 443 41,000  Level Jacksonville Center
12:01PM 31.1867 -81.7853 352° North 392 451 41,000  Level Jacksonville Center
12:02PM 31.2953 -81.8008 353° North 390 449 41,000  Level Jacksonville Center
12:03PM 31.4000 -81.8142 354° North 377 434 41,000  Level Jacksonville Center
12:04PM 31.5211 -81.8325 353° North 389 448 41,000  Level Jacksonville Center
12:05PM 31.6319 -81.8483 353° North 395 455 41,000  Level Jacksonville Center
12:06PM 31.7281 -81.8642 352° North 388 447 41,000  Level Jacksonville Center
12:07PM 31.8453 -81.8825 352° North 388 447 41,000  Level Jacksonville Center
12:10PM 32.0769 -81.9136 354° North 363 418 41,000 -180 Level Atlanta Center
12:11PM 32.1814 -81.9283 353° North 355 409 40,500 -900 Descending Atlanta Center
12:12PM 32.2944 -81.9478 352° North 366 421 39,300 -1,140 Descending Atlanta Center
12:13PM 32.3992 -81.9650 352° North 371 427 38,300 -1,020 Descending Atlanta Center
12:14PM 32.5078 -81.9772 355° North 371 427 37,300 -1,020 Descending Atlanta Center
12:15PM 32.6189 -81.9969 351° North 387 445 36,300 -1,020 Descending Atlanta Center
12:16PM 32.7339 -82.0114 354° North 399 459 35,300 -660 Descending Atlanta Center
12:17PM 32.8469 -82.0311 352° North 405 466 35,000 -180 Descending Atlanta Center
12:18PM 32.9578 -82.0483 353° North 405 466 35,000  Level Atlanta Center
12:19PM 33.0728 -82.0631 354° North 410 472 35,000  Level Atlanta Center
12:20PM 33.1858 -82.0831 352° North 410 472 35,000  Level Atlanta Center
12:21PM 33.2883 -82.0981 353° North 410 472 35,000 -780 Level Atlanta Center
12:22PM 33.4014 -82.1153 353° North 410 472 33,500 -1,500 Descending Atlanta Center
12:23PM 33.5186 -82.1303 354° North 410 472 32,000 -1,560 Descending Atlanta Center
12:24PM 33.6378 -82.1500 352° North 415 478 30,400 -1,620 Descending Atlanta Center
12:25PM 33.7567 -82.1525 359° North 425 489 28,800 -1,560 Descending Atlanta Center
12:26PM 33.8797 -82.1347 North 425 489 27,300 -1,560 Descending Atlanta Center
12:27PM 34.0025 -82.1094 10° North 436 502 25,700 -1,380 Descending Atlanta Center
12:28PM 34.1189 -82.0917 North 441 507 24,600 -900 Descending Atlanta Center
12:29PM 34.2439 -82.0661 10° North 423 487 24,000 -1,020 Descending Atlanta Center
12:30PM 34.3542 -82.0486 North 404 465 22,600 -1,500 Descending Atlanta Center
12:31PM 34.4603 -82.0358 North 398 458 21,000 -8,820 Descending Atlanta Center
12:32PM 34.5672 -82.0686 346° North 384 442 5,000 -1,620 Descending Atlanta Center
12:33PM 34.6600 -82.1194 336° Northwest 369 425 17,800 5,700 Climbing Atlanta Center
12:34PM 34.7547 -82.1706 336° Northwest 369 425 16,400 -1,500 Descending Atlanta Center
12:35PM 34.8453 -82.2217 335° Northwest 364 419 14,800 -1,620 Descending Atlanta Center
12:36PM 34.9292 -82.2653 337° Northwest 353 406 13,200 -1,620 Descending Atlanta Center
12:37PM 35.0178 -82.3167 335° Northwest 342 394 11,600 -1,620 Descending Atlanta Center
12:38PM 35.0956 -82.3583 336° Northwest 330 380 10,000 -1,620 Descending Atlanta Center
12:39PM 35.1772 -82.3819 347° North 314 361 8,400 -1,500 Descending Atlanta Center
12:40PM 35.2628 -82.3881 357° North 309 356 7,000 -720 Descending Atlanta Center
12:41PM 35.3358 -82.4017 351° North 276 318 7,000  Level Atlanta Center
12:42PM 35.3969 -82.4361 335° Northwest 243 280 7,000  Level Atlanta Center
12:43PM 35.4578 -82.4631 340° North 232 267 7,000  Level Atlanta Center
12:44PM 35.5103 -82.4900 337° Northwest 232 267 7,000  Level Atlanta Center
12:45PM 35.5692 -82.5172 339° North 232 267 7,000  Level Atlanta Center
12:46PM 35.6300 -82.5492 337° Northwest 232 267 7,000 -60 Level Atlanta Center
12:47PM 35.6700 -82.5919 319° Northwest 222 255 6,900 -600 Descending Atlanta Center
12:48PM 35.6394 -82.6411 233° Southwest 150 173 5,800 -900 Descending Atlanta Center
12:49PM 35.6039 -82.6364 174° South 91 105 5,200 -420 Descending Atlanta Center
12:50PM 35.5769 -82.6497 202° Southwest 91 105 5,000 -240 Descending Atlanta Center